LTCI

Details ICAO LTCI (VAN)
Name VAN
Region Turkey
Timezone Europe/Istanbul (UTC+3.0)
Plans Departing 63
Arriving 76
Stats Elevation 5,480 ft / 1,670 m (AMSL)
Location 38.468221° 43.332300°
Runways 1
Magnetic Variation 5.768° E
Sunrise 2017-12-18 04:20:03 UTC / 2017-12-18 07:20:03 Local
Sunset 2017-12-18 13:49:06 UTC / 2017-12-18 16:49:06 Local
Advertisement - Login to hide

Runways

ID Width Length Bearing (true) Bearing (mag) Surface Threshold Offset Overrun Length
03 148 ft / 45 m 9,018 ft / 2,749 m 37.57° 31.80° Asphalt 0 ft / 0 m 196 ft / 60 m
21 148 ft / 45 m 9,018 ft / 2,749 m 217.59° 211.82° Asphalt 0 ft / 0 m 196 ft / 60 m

Map

Weather


0- 5 10 15 20 25 30 35+ Temperature / ° C

Clouds and Precipitation
Forecast for 2017-12-18 06:00 UTC. Updated 25 minutes ago

Ground ~20,000 ft ~40,000 ft Winds

METAR

LTCI 180250Z 04005KT 9999 FEW035 SCT080 M00/M03 Q1024 NOSIG

TAF

Not found

Frequencies

Ground 121.90 MHz GND
Tower 118.10 MHz TWR
Approach 118.10 MHz APP
Tower 122.70 MHz TWR
Approach 122.70 MHz APP
Warning: Do not use this data for real-world aviation or navigation. No guarantee of current accuracy is given.